sensor_id;sensor_type;location;lat;lon;timestamp;temperature;humidity
61094;DHT22;46976;52.942;6.810;2023-10-09T00:01:43;13.40;99.90
61094;DHT22;46976;52.942;6.810;2023-10-09T00:04:12;13.30;99.90
61094;DHT22;46976;52.942;6.810;2023-10-09T00:06:39;13.40;99.90
61094;DHT22;46976;52.942;6.810;2023-10-09T00:09:08;13.40;99.90
61094;DHT22;46976;52.942;6.810;2023-10-09T00:11:49;13.40;99.90
61094;DHT22;46976;52.942;6.810;2023-10-09T00:14:22;13.50;99.90
61094;DHT22;46976;52.942;6.810;2023-10-09T00:16:48;13.50;99.90
61094;DHT22;46976;52.942;6.810;2023-10-09T00:19:14;13.50;99.90
61094;DHT22;46976;52.942;6.810;2023-10-09T00:21:46;13.50;99.90
61094;DHT22;46976;52.942;6.810;2023-10-09T00:24:12;13.50;99.90
61094;DHT22;46976;52.942;6.810;2023-10-09T00:26:47;13.50;99.90
61094;DHT22;46976;52.942;6.810;2023-10-09T00:29:15;13.50;99.90
61094;DHT22;46976;52.942;6.810;2023-10-09T00:31:49;13.50;99.90
61094;DHT22;46976;52.942;6.810;2023-10-09T00:34:28;13.50;99.90
61094;DHT22;46976;52.942;6.810;2023-10-09T00:36:54;13.40;99.90
61094;DHT22;46976;52.942;6.810;2023-10-09T00:39:21;13.40;99.90
61094;DHT22;46976;52.942;6.810;2023-10-09T00:42:07;13.50;99.90
61094;DHT22;46976;52.942;6.810;2023-10-09T00:44:33;13.40;99.90
61094;DHT22;46976;52.942;6.810;2023-10-09T00:47:11;13.40;99.90
61094;DHT22;46976;52.942;6.810;2023-10-09T00:49:57;13.40;99.90
61094;DHT22;46976;52.942;6.810;2023-10-09T00:52:31;13.40;99.90
61094;DHT22;46976;52.942;6.810;2023-10-09T00:55:03;13.40;99.90
61094;DHT22;46976;52.942;6.810;2023-10-09T00:57:47;13.40;99.90
61094;DHT22;46976;52.942;6.810;2023-10-09T01:00:23;13.40;99.90
61094;DHT22;46976;52.942;6.810;2023-10-09T01:02:59;13.40;99.90
61094;DHT22;46976;52.942;6.810;2023-10-09T01:05:47;13.40;99.90
61094;DHT22;46976;52.942;6.810;2023-10-09T01:08:27;13.40;99.90
61094;DHT22;46976;52.942;6.810;2023-10-09T01:11:11;13.40;99.90
61094;DHT22;46976;52.942;6.810;2023-10-09T01:13:55;13.40;99.90
61094;DHT22;46976;52.942;6.810;2023-10-09T01:16:36;13.40;99.90
61094;DHT22;46976;52.942;6.810;2023-10-09T01:19:03;13.30;99.90
61094;DHT22;46976;52.942;6.810;2023-10-09T01:21:44;13.40;99.90
61094;DHT22;46976;52.942;6.810;2023-10-09T01:24:10;13.30;99.90
61094;DHT22;46976;52.942;6.810;2023-10-09T01:26:37;13.30;99.90
61094;DHT22;46976;52.942;6.810;2023-10-09T01:29:20;13.30;99.90
61094;DHT22;46976;52.942;6.810;2023-10-09T01:31:51;13.30;99.90
61094;DHT22;46976;52.942;6.810;2023-10-09T01:36:53;13.30;99.90
61094;DHT22;46976;52.942;6.810;2023-10-09T01:39:25;13.30;99.90
61094;DHT22;46976;52.942;6.810;2023-10-09T01:42:05;13.30;99.90
61094;DHT22;46976;52.942;6.810;2023-10-09T01:44:32;13.30;99.90
61094;DHT22;46976;52.942;6.810;2023-10-09T01:47:04;13.30;99.90
61094;DHT22;46976;52.942;6.810;2023-10-09T01:49:37;13.30;99.90
61094;DHT22;46976;52.942;6.810;2023-10-09T01:52:07;13.30;99.90
61094;DHT22;46976;52.942;6.810;2023-10-09T01:54:38;13.30;99.90
61094;DHT22;46976;52.942;6.810;2023-10-09T01:57:05;13.20;99.90
61094;DHT22;46976;52.942;6.810;2023-10-09T01:59:38;13.30;99.90
61094;DHT22;46976;52.942;6.810;2023-10-09T02:02:12;13.20;99.90
61094;DHT22;46976;52.942;6.810;2023-10-09T02:04:54;13.30;99.90
61094;DHT22;46976;52.942;6.810;2023-10-09T02:07:26;13.30;99.90
61094;DHT22;46976;52.942;6.810;2023-10-09T02:10:03;13.30;99.90
61094;DHT22;46976;52.942;6.810;2023-10-09T02:12:29;13.30;99.90
61094;DHT22;46976;52.942;6.810;2023-10-09T02:14:59;13.30;99.90
61094;DHT22;46976;52.942;6.810;2023-10-09T02:17:31;13.40;99.90
61094;DHT22;46976;52.942;6.810;2023-10-09T02:19:59;13.30;99.90
61094;DHT22;46976;52.942;6.810;2023-10-09T02:22:25;13.40;99.90
61094;DHT22;46976;52.942;6.810;2023-10-09T02:24:51;13.40;99.90
61094;DHT22;46976;52.942;6.810;2023-10-09T02:27:23;13.40;99.90
61094;DHT22;46976;52.942;6.810;2023-10-09T02:30:10;13.40;99.90
61094;DHT22;46976;52.942;6.810;2023-10-09T02:32:53;13.40;99.90
61094;DHT22;46976;52.942;6.810;2023-10-09T02:35:24;13.40;99.90
61094;DHT22;46976;52.942;6.810;2023-10-09T02:38:04;13.40;99.90
61094;DHT22;46976;52.942;6.810;2023-10-09T02:40:36;13.40;99.90
61094;DHT22;46976;52.942;6.810;2023-10-09T02:43:20;13.50;99.90
61094;DHT22;46976;52.942;6.810;2023-10-09T02:45:46;13.50;99.90
61094;DHT22;46976;52.942;6.810;2023-10-09T02:48:20;13.50;99.90
61094;DHT22;46976;52.942;6.810;2023-10-09T02:50:50;13.50;99.90
61094;DHT22;46976;52.942;6.810;2023-10-09T02:53:16;13.50;99.90
61094;DHT22;46976;52.942;6.810;2023-10-09T02:55:54;13.50;99.90
61094;DHT22;46976;52.942;6.810;2023-10-09T02:58:38;13.50;99.90
61094;DHT22;46976;52.942;6.810;2023-10-09T03:01:12;13.50;99.90
61094;DHT22;46976;52.942;6.810;2023-10-09T03:03:42;13.50;99.90
61094;DHT22;46976;52.942;6.810;2023-10-09T03:06:14;13.50;99.90
61094;DHT22;46976;52.942;6.810;2023-10-09T03:08:44;13.50;99.90
61094;DHT22;46976;52.942;6.810;2023-10-09T03:11:14;13.50;99.90
61094;DHT22;46976;52.942;6.810;2023-10-09T03:13:43;13.50;99.90
61094;DHT22;46976;52.942;6.810;2023-10-09T03:16:13;13.50;99.90
61094;DHT22;46976;52.942;6.810;2023-10-09T03:18:46;13.50;99.90
61094;DHT22;46976;52.942;6.810;2023-10-09T03:21:13;13.50;99.90
61094;DHT22;46976;52.942;6.810;2023-10-09T03:23:40;13.50;99.90
61094;DHT22;46976;52.942;6.810;2023-10-09T03:26:06;13.50;99.90
61094;DHT22;46976;52.942;6.810;2023-10-09T03:28:36;13.50;99.90
61094;DHT22;46976;52.942;6.810;2023-10-09T03:31:02;13.60;99.90
61094;DHT22;46976;52.942;6.810;2023-10-09T03:33:31;13.70;99.90
61094;DHT22;46976;52.942;6.810;2023-10-09T03:35:59;13.70;99.90
61094;DHT22;46976;52.942;6.810;2023-10-09T03:38:26;13.70;99.90
61094;DHT22;46976;52.942;6.810;2023-10-09T03:40:54;13.70;99.90
61094;DHT22;46976;52.942;6.810;2023-10-09T03:43:20;13.80;99.90
61094;DHT22;46976;52.942;6.810;2023-10-09T03:45:47;13.80;99.90
61094;DHT22;46976;52.942;6.810;2023-10-09T03:48:19;13.80;99.90
61094;DHT22;46976;52.942;6.810;2023-10-09T03:50:51;13.90;99.90
61094;DHT22;46976;52.942;6.810;2023-10-09T03:53:38;13.90;99.90
61094;DHT22;46976;52.942;6.810;2023-10-09T03:56:08;13.90;99.90
61094;DHT22;46976;52.942;6.810;2023-10-09T03:58:59;13.90;99.90
61094;DHT22;46976;52.942;6.810;2023-10-09T04:01:27;13.90;99.90
61094;DHT22;46976;52.942;6.810;2023-10-09T04:04:03;14.00;99.90
61094;DHT22;46976;52.942;6.810;2023-10-09T04:06:32;14.00;99.90
61094;DHT22;46976;52.942;6.810;2023-10-09T04:09:03;14.00;99.90
61094;DHT22;46976;52.942;6.810;2023-10-09T04:11:52;14.10;99.90
61094;DHT22;46976;52.942;6.810;2023-10-09T04:14:39;14.10;99.90
61094;DHT22;46976;52.942;6.810;2023-10-09T04:17:31;14.10;99.90
61094;DHT22;46976;52.942;6.810;2023-10-09T04:20:04;14.20;99.90
61094;DHT22;46976;52.942;6.810;2023-10-09T04:22:46;14.20;99.90
61094;DHT22;46976;52.942;6.810;2023-10-09T04:25:30;14.30;99.90
61094;DHT22;46976;52.942;6.810;2023-10-09T04:28:06;14.30;99.90
61094;DHT22;46976;52.942;6.810;2023-10-09T04:30:38;14.40;99.90
61094;DHT22;46976;52.942;6.810;2023-10-09T04:33:09;14.40;99.90
61094;DHT22;46976;52.942;6.810;2023-10-09T04:36:05;14.40;99.90
61094;DHT22;46976;52.942;6.810;2023-10-09T04:38:53;14.50;99.90
61094;DHT22;46976;52.942;6.810;2023-10-09T04:41:28;14.50;99.90
61094;DHT22;46976;52.942;6.810;2023-10-09T04:43:57;14.60;99.90
61094;DHT22;46976;52.942;6.810;2023-10-09T04:46:42;14.60;99.90
61094;DHT22;46976;52.942;6.810;2023-10-09T04:49:28;14.60;99.90
61094;DHT22;46976;52.942;6.810;2023-10-09T04:51:54;14.60;99.90
61094;DHT22;46976;52.942;6.810;2023-10-09T04:54:43;14.70;99.90
61094;DHT22;46976;52.942;6.810;2023-10-09T04:57:27;14.70;99.90
61094;DHT22;46976;52.942;6.810;2023-10-09T04:59:53;14.70;99.90
61094;DHT22;46976;52.942;6.810;2023-10-09T05:02:24;14.70;99.90
61094;DHT22;46976;52.942;6.810;2023-10-09T05:04:50;14.70;99.90
61094;DHT22;46976;52.942;6.810;2023-10-09T05:07:38;14.70;99.90
61094;DHT22;46976;52.942;6.810;2023-10-09T05:10:20;14.80;99.90
61094;DHT22;46976;52.942;6.810;2023-10-09T05:12:51;14.80;99.90
61094;DHT22;46976;52.942;6.810;2023-10-09T05:15:25;14.80;99.90
61094;DHT22;46976;52.942;6.810;2023-10-09T05:17:58;14.80;99.90
61094;DHT22;46976;52.942;6.810;2023-10-09T05:20:27;14.80;99.90
61094;DHT22;46976;52.942;6.810;2023-10-09T05:22:53;14.80;99.90
61094;DHT22;46976;52.942;6.810;2023-10-09T05:25:45;14.80;99.90
61094;DHT22;46976;52.942;6.810;2023-10-09T05:28:21;14.80;99.90
61094;DHT22;46976;52.942;6.810;2023-10-09T05:30:59;14.80;99.90
61094;DHT22;46976;52.942;6.810;2023-10-09T05:33:33;14.80;99.90
61094;DHT22;46976;52.942;6.810;2023-10-09T05:36:01;14.80;99.90
61094;DHT22;46976;52.942;6.810;2023-10-09T05:38:32;14.90;99.90
61094;DHT22;46976;52.942;6.810;2023-10-09T05:41:01;14.90;99.90
61094;DHT22;46976;52.942;6.810;2023-10-09T05:43:47;14.90;99.90
61094;DHT22;46976;52.942;6.810;2023-10-09T05:46:31;14.90;99.90
61094;DHT22;46976;52.942;6.810;2023-10-09T05:49:01;14.90;99.90
61094;DHT22;46976;52.942;6.810;2023-10-09T05:51:35;14.90;99.90
61094;DHT22;46976;52.942;6.810;2023-10-09T05:54:07;14.90;99.90
61094;DHT22;46976;52.942;6.810;2023-10-09T05:56:51;15.00;99.90
61094;DHT22;46976;52.942;6.810;2023-10-09T05:59:36;15.00;99.90
61094;DHT22;46976;52.942;6.810;2023-10-09T06:02:20;15.00;99.90
61094;DHT22;46976;52.942;6.810;2023-10-09T06:05:04;15.00;99.90
61094;DHT22;46976;52.942;6.810;2023-10-09T06:07:30;15.10;99.90
61094;DHT22;46976;52.942;6.810;2023-10-09T06:10:14;15.10;99.90
61094;DHT22;46976;52.942;6.810;2023-10-09T06:12:45;15.10;99.90
61094;DHT22;46976;52.942;6.810;2023-10-09T06:15:10;15.10;99.90
61094;DHT22;46976;52.942;6.810;2023-10-09T06:17:57;15.10;99.90
61094;DHT22;46976;52.942;6.810;2023-10-09T06:20:45;15.20;99.90
61094;DHT22;46976;52.942;6.810;2023-10-09T06:23:31;15.20;99.90
61094;DHT22;46976;52.942;6.810;2023-10-09T06:26:29;15.20;99.90
61094;DHT22;46976;52.942;6.810;2023-10-09T06:28:58;15.20;99.90
61094;DHT22;46976;52.942;6.810;2023-10-09T06:34:11;15.30;99.90
61094;DHT22;46976;52.942;6.810;2023-10-09T06:36:40;15.30;99.90
61094;DHT22;46976;52.942;6.810;2023-10-09T06:39:18;15.40;99.90
61094;DHT22;46976;52.942;6.810;2023-10-09T06:42:03;15.40;99.90
61094;DHT22;46976;52.942;6.810;2023-10-09T06:44:41;15.40;99.90
61094;DHT22;46976;52.942;6.810;2023-10-09T06:47:19;15.50;99.90
61094;DHT22;46976;52.942;6.810;2023-10-09T06:49:49;15.50;99.90
61094;DHT22;46976;52.942;6.810;2023-10-09T06:52:35;15.50;99.90
61094;DHT22;46976;52.942;6.810;2023-10-09T06:55:19;15.60;99.90
61094;DHT22;46976;52.942;6.810;2023-10-09T06:57:46;15.60;99.90
61094;DHT22;46976;52.942;6.810;2023-10-09T07:00:15;15.70;99.90
61094;DHT22;46976;52.942;6.810;2023-10-09T07:03:01;15.70;99.90
61094;DHT22;46976;52.942;6.810;2023-10-09T07:05:37;15.60;99.90
61094;DHT22;46976;52.942;6.810;2023-10-09T07:08:23;15.70;99.90
61094;DHT22;46976;52.942;6.810;2023-10-09T07:11:01;15.70;99.90
61094;DHT22;46976;52.942;6.810;2023-10-09T07:13:45;15.70;99.90
61094;DHT22;46976;52.942;6.810;2023-10-09T07:16:22;15.70;99.90
61094;DHT22;46976;52.942;6.810;2023-10-09T07:19:06;15.70;99.90
61094;DHT22;46976;52.942;6.810;2023-10-09T07:21:45;15.70;99.90
61094;DHT22;46976;52.942;6.810;2023-10-09T07:24:22;15.70;99.90
61094;DHT22;46976;52.942;6.810;2023-10-09T07:27:04;15.80;99.90
61094;DHT22;46976;52.942;6.810;2023-10-09T07:29:35;15.80;99.90
61094;DHT22;46976;52.942;6.810;2023-10-09T07:32:16;15.80;99.90
61094;DHT22;46976;52.942;6.810;2023-10-09T07:34:49;15.80;99.90
61094;DHT22;46976;52.942;6.810;2023-10-09T07:37:25;15.80;99.90
61094;DHT22;46976;52.942;6.810;2023-10-09T07:39:56;15.80;99.90
61094;DHT22;46976;52.942;6.810;2023-10-09T07:42:32;15.80;99.90
61094;DHT22;46976;52.942;6.810;2023-10-09T07:45:10;15.80;99.90
61094;DHT22;46976;52.942;6.810;2023-10-09T07:47:48;15.80;99.90
61094;DHT22;46976;52.942;6.810;2023-10-09T07:50:40;15.80;99.90
61094;DHT22;46976;52.942;6.810;2023-10-09T07:53:15;15.80;99.90
61094;DHT22;46976;52.942;6.810;2023-10-09T07:55:46;15.80;99.90
61094;DHT22;46976;52.942;6.810;2023-10-09T07:58:32;15.90;99.90
61094;DHT22;46976;52.942;6.810;2023-10-09T08:00:59;15.80;99.90
61094;DHT22;46976;52.942;6.810;2023-10-09T08:03:50;15.80;99.90
61094;DHT22;46976;52.942;6.810;2023-10-09T08:06:37;15.90;99.90
61094;DHT22;46976;52.942;6.810;2023-10-09T08:09:09;15.90;99.90
61094;DHT22;46976;52.942;6.810;2023-10-09T08:11:48;15.90;99.90
61094;DHT22;46976;52.942;6.810;2023-10-09T08:14:42;15.90;99.90
61094;DHT22;46976;52.942;6.810;2023-10-09T08:17:09;16.00;99.90
61094;DHT22;46976;52.942;6.810;2023-10-09T08:19:47;16.00;99.90
61094;DHT22;46976;52.942;6.810;2023-10-09T08:24:48;16.10;99.90
61094;DHT22;46976;52.942;6.810;2023-10-09T08:27:23;16.10;99.90
61094;DHT22;46976;52.942;6.810;2023-10-09T08:29:59;16.10;99.90
61094;DHT22;46976;52.942;6.810;2023-10-09T08:32:52;16.20;99.90
61094;DHT22;46976;52.942;6.810;2023-10-09T08:35:30;16.30;99.90
61094;DHT22;46976;52.942;6.810;2023-10-09T08:37:58;16.20;99.90
61094;DHT22;46976;52.942;6.810;2023-10-09T08:40:38;16.30;99.90
61094;DHT22;46976;52.942;6.810;2023-10-09T08:45:48;16.50;99.90
61094;DHT22;46976;52.942;6.810;2023-10-09T08:48:14;16.40;99.90
61094;DHT22;46976;52.942;6.810;2023-10-09T08:50:47;16.40;99.90
61094;DHT22;46976;52.942;6.810;2023-10-09T08:53:14;16.40;99.90
61094;DHT22;46976;52.942;6.810;2023-10-09T08:55:42;16.40;99.90
61094;DHT22;46976;52.942;6.810;2023-10-09T08:58:09;16.40;99.90
61094;DHT22;46976;52.942;6.810;2023-10-09T09:00:46;16.30;99.90
61094;DHT22;46976;52.942;6.810;2023-10-09T09:03:16;16.30;99.90
61094;DHT22;46976;52.942;6.810;2023-10-09T09:05:47;16.30;99.90
61094;DHT22;46976;52.942;6.810;2023-10-09T09:08:25;16.20;99.90
61094;DHT22;46976;52.942;6.810;2023-10-09T09:11:00;16.20;99.90
61094;DHT22;46976;52.942;6.810;2023-10-09T09:13:45;16.20;99.90
61094;DHT22;46976;52.942;6.810;2023-10-09T09:16:22;16.10;99.90
61094;DHT22;46976;52.942;6.810;2023-10-09T09:19:02;16.10;99.90
61094;DHT22;46976;52.942;6.810;2023-10-09T09:21:50;16.10;99.90
61094;DHT22;46976;52.942;6.810;2023-10-09T09:24:24;16.10;99.90
61094;DHT22;46976;52.942;6.810;2023-10-09T09:26:51;16.10;99.90
61094;DHT22;46976;52.942;6.810;2023-10-09T09:29:47;16.10;99.90
61094;DHT22;46976;52.942;6.810;2023-10-09T09:32:32;16.10;99.90
61094;DHT22;46976;52.942;6.810;2023-10-09T09:35:12;16.20;99.90
61094;DHT22;46976;52.942;6.810;2023-10-09T09:37:52;16.20;99.90
61094;DHT22;46976;52.942;6.810;2023-10-09T09:40:20;16.30;99.90
61094;DHT22;46976;52.942;6.810;2023-10-09T09:43:08;16.20;99.90
61094;DHT22;46976;52.942;6.810;2023-10-09T09:45:46;16.30;99.90
61094;DHT22;46976;52.942;6.810;2023-10-09T09:48:14;16.30;99.90
61094;DHT22;46976;52.942;6.810;2023-10-09T09:50:42;16.30;99.90
61094;DHT22;46976;52.942;6.810;2023-10-09T09:53:16;16.40;99.90
61094;DHT22;46976;52.942;6.810;2023-10-09T09:55:52;16.40;99.90
61094;DHT22;46976;52.942;6.810;2023-10-09T09:58:26;16.40;99.90
61094;DHT22;46976;52.942;6.810;2023-10-09T10:01:03;16.50;99.90
61094;DHT22;46976;52.942;6.810;2023-10-09T10:03:44;16.50;99.90
61094;DHT22;46976;52.942;6.810;2023-10-09T10:06:12;16.50;99.90
61094;DHT22;46976;52.942;6.810;2023-10-09T10:08:41;16.60;99.90
61094;DHT22;46976;52.942;6.810;2023-10-09T10:11:07;16.60;99.90
61094;DHT22;46976;52.942;6.810;2023-10-09T10:16:09;16.80;99.90
61094;DHT22;46976;52.942;6.810;2023-10-09T10:19:03;16.80;99.90
61094;DHT22;46976;52.942;6.810;2023-10-09T10:21:43;16.90;99.90
61094;DHT22;46976;52.942;6.810;2023-10-09T10:29:46;17.00;99.90
61094;DHT22;46976;52.942;6.810;2023-10-09T10:32:15;17.00;99.90
61094;DHT22;46976;52.942;6.810;2023-10-09T10:37:36;17.10;99.90
61094;DHT22;46976;52.942;6.810;2023-10-09T10:40:09;17.10;99.90
61094;DHT22;46976;52.942;6.810;2023-10-09T10:43:01;17.20;99.90
61094;DHT22;46976;52.942;6.810;2023-10-09T10:45:39;17.10;99.90
61094;DHT22;46976;52.942;6.810;2023-10-09T10:48:10;17.10;99.90
61094;DHT22;46976;52.942;6.810;2023-10-09T10:50:57;17.10;99.90
61094;DHT22;46976;52.942;6.810;2023-10-09T10:53:23;17.00;99.90
61094;DHT22;46976;52.942;6.810;2023-10-09T10:55:58;17.00;99.90
61094;DHT22;46976;52.942;6.810;2023-10-09T10:58:51;17.00;99.90
61094;DHT22;46976;52.942;6.810;2023-10-09T11:01:37;16.90;99.90
61094;DHT22;46976;52.942;6.810;2023-10-09T11:04:27;16.90;99.90
61094;DHT22;46976;52.942;6.810;2023-10-09T11:07:04;16.90;99.90
61094;DHT22;46976;52.942;6.810;2023-10-09T11:09:58;16.80;99.90
61094;DHT22;46976;52.942;6.810;2023-10-09T11:12:30;16.80;99.90
61094;DHT22;46976;52.942;6.810;2023-10-09T11:15:14;16.80;99.90
61094;DHT22;46976;52.942;6.810;2023-10-09T11:17:57;16.80;99.90
61094;DHT22;46976;52.942;6.810;2023-10-09T11:20:33;16.80;99.90
61094;DHT22;46976;52.942;6.810;2023-10-09T11:22:59;16.80;99.90
61094;DHT22;46976;52.942;6.810;2023-10-09T11:25:38;16.80;99.90
61094;DHT22;46976;52.942;6.810;2023-10-09T11:28:36;16.80;99.90
61094;DHT22;46976;52.942;6.810;2023-10-09T11:31:23;16.80;99.90
61094;DHT22;46976;52.942;6.810;2023-10-09T11:33:52;16.80;99.90
61094;DHT22;46976;52.942;6.810;2023-10-09T11:36:22;16.80;99.90
61094;DHT22;46976;52.942;6.810;2023-10-09T11:39:04;16.80;99.90
61094;DHT22;46976;52.942;6.810;2023-10-09T11:42:05;16.80;99.90
61094;DHT22;46976;52.942;6.810;2023-10-09T11:44:44;16.80;99.90
61094;DHT22;46976;52.942;6.810;2023-10-09T11:47:10;16.80;99.90
61094;DHT22;46976;52.942;6.810;2023-10-09T11:49:51;16.80;99.90
61094;DHT22;46976;52.942;6.810;2023-10-09T11:52:27;16.80;99.90
61094;DHT22;46976;52.942;6.810;2023-10-09T11:55:11;16.80;99.90
61094;DHT22;46976;52.942;6.810;2023-10-09T11:57:41;16.80;99.90
61094;DHT22;46976;52.942;6.810;2023-10-09T12:00:07;16.80;99.90
61094;DHT22;46976;52.942;6.810;2023-10-09T12:03:02;16.80;99.90
61094;DHT22;46976;52.942;6.810;2023-10-09T12:05:33;16.90;99.90
61094;DHT22;46976;52.942;6.810;2023-10-09T12:07:59;16.90;99.90
61094;DHT22;46976;52.942;6.810;2023-10-09T12:10:27;17.00;99.90
61094;DHT22;46976;52.942;6.810;2023-10-09T12:12:53;17.00;99.90
61094;DHT22;46976;52.942;6.810;2023-10-09T12:15:19;17.00;99.90
61094;DHT22;46976;52.942;6.810;2023-10-09T12:17:46;17.10;99.90
61094;DHT22;46976;52.942;6.810;2023-10-09T12:20:19;17.20;99.90
61094;DHT22;46976;52.942;6.810;2023-10-09T12:23:03;17.20;99.90
61094;DHT22;46976;52.942;6.810;2023-10-09T12:25:35;17.30;99.90
61094;DHT22;46976;52.942;6.810;2023-10-09T12:28:01;17.40;99.90
61094;DHT22;46976;52.942;6.810;2023-10-09T12:30:31;17.40;99.90
61094;DHT22;46976;52.942;6.810;2023-10-09T12:33:03;17.50;99.90
61094;DHT22;46976;52.942;6.810;2023-10-09T12:35:29;17.70;99.90
61094;DHT22;46976;52.942;6.810;2023-10-09T12:37:59;17.70;99.90
61094;DHT22;46976;52.942;6.810;2023-10-09T12:40:25;17.90;99.90
61094;DHT22;46976;52.942;6.810;2023-10-09T12:42:54;17.90;99.90
61094;DHT22;46976;52.942;6.810;2023-10-09T12:45:21;18.00;99.90
61094;DHT22;46976;52.942;6.810;2023-10-09T12:47:56;17.90;99.90
61094;DHT22;46976;52.942;6.810;2023-10-09T12:50:28;18.00;99.90
61094;DHT22;46976;52.942;6.810;2023-10-09T12:52:58;18.00;99.90
61094;DHT22;46976;52.942;6.810;2023-10-09T12:55:36;18.10;99.90
61094;DHT22;46976;52.942;6.810;2023-10-09T12:58:03;18.10;99.90
61094;DHT22;46976;52.942;6.810;2023-10-09T13:00:36;18.10;99.90
61094;DHT22;46976;52.942;6.810;2023-10-09T13:03:10;18.20;99.90
61094;DHT22;46976;52.942;6.810;2023-10-09T13:05:50;18.20;99.90
61094;DHT22;46976;52.942;6.810;2023-10-09T13:08:23;18.20;99.90
61094;DHT22;46976;52.942;6.810;2023-10-09T13:10:52;18.30;99.90
61094;DHT22;46976;52.942;6.810;2023-10-09T13:13:28;18.30;99.90
61094;DHT22;46976;52.942;6.810;2023-10-09T13:16:17;18.40;99.90
61094;DHT22;46976;52.942;6.810;2023-10-09T13:18:53;18.50;99.90
61094;DHT22;46976;52.942;6.810;2023-10-09T13:21:26;18.60;99.90
61094;DHT22;46976;52.942;6.810;2023-10-09T13:23:52;18.80;99.90
61094;DHT22;46976;52.942;6.810;2023-10-09T13:26:23;18.90;99.90
61094;DHT22;46976;52.942;6.810;2023-10-09T13:28:52;19.10;99.90
61094;DHT22;46976;52.942;6.810;2023-10-09T13:31:18;19.20;99.90
61094;DHT22;46976;52.942;6.810;2023-10-09T13:33:47;19.30;99.90
61094;DHT22;46976;52.942;6.810;2023-10-09T13:36:14;19.30;99.90
61094;DHT22;46976;52.942;6.810;2023-10-09T13:38:48;19.20;99.90
61094;DHT22;46976;52.942;6.810;2023-10-09T13:41:14;19.10;99.90
61094;DHT22;46976;52.942;6.810;2023-10-09T13:43:41;19.00;99.90
61094;DHT22;46976;52.942;6.810;2023-10-09T13:46:07;18.90;99.90
61094;DHT22;46976;52.942;6.810;2023-10-09T13:48:34;18.80;99.90
61094;DHT22;46976;52.942;6.810;2023-10-09T13:51:04;18.80;99.90
61094;DHT22;46976;52.942;6.810;2023-10-09T13:53:33;18.80;99.90
61094;DHT22;46976;52.942;6.810;2023-10-09T13:56:02;18.70;99.90
61094;DHT22;46976;52.942;6.810;2023-10-09T13:58:28;18.60;99.90
61094;DHT22;46976;52.942;6.810;2023-10-09T14:00:53;18.60;99.90
61094;DHT22;46976;52.942;6.810;2023-10-09T14:03:22;18.50;99.90
61094;DHT22;46976;52.942;6.810;2023-10-09T14:05:49;18.50;99.90
61094;DHT22;46976;52.942;6.810;2023-10-09T14:08:23;18.50;99.90
61094;DHT22;46976;52.942;6.810;2023-10-09T14:10:49;18.40;99.90
61094;DHT22;46976;52.942;6.810;2023-10-09T14:13:16;18.30;99.90
61094;DHT22;46976;52.942;6.810;2023-10-09T14:15:43;18.30;99.90
61094;DHT22;46976;52.942;6.810;2023-10-09T14:18:11;18.30;99.90
61094;DHT22;46976;52.942;6.810;2023-10-09T14:20:38;18.20;99.90
61094;DHT22;46976;52.942;6.810;2023-10-09T14:23:03;18.10;99.90
61094;DHT22;46976;52.942;6.810;2023-10-09T14:25:36;18.10;99.90
61094;DHT22;46976;52.942;6.810;2023-10-09T14:28:07;18.00;99.90
61094;DHT22;46976;52.942;6.810;2023-10-09T14:30:35;17.90;99.90
61094;DHT22;46976;52.942;6.810;2023-10-09T14:33:16;17.90;99.90
61094;DHT22;46976;52.942;6.810;2023-10-09T14:35:48;17.80;99.90
61094;DHT22;46976;52.942;6.810;2023-10-09T14:38:14;17.70;99.90
61094;DHT22;46976;52.942;6.810;2023-10-09T14:40:42;17.70;99.90
61094;DHT22;46976;52.942;6.810;2023-10-09T14:43:08;17.60;99.90
61094;DHT22;46976;52.942;6.810;2023-10-09T14:45:41;17.60;99.90
61094;DHT22;46976;52.942;6.810;2023-10-09T14:48:08;17.50;99.90
61094;DHT22;46976;52.942;6.810;2023-10-09T14:50:36;17.50;99.90
61094;DHT22;46976;52.942;6.810;2023-10-09T14:53:04;17.50;99.90
61094;DHT22;46976;52.942;6.810;2023-10-09T14:55:30;17.50;99.90
61094;DHT22;46976;52.942;6.810;2023-10-09T14:57:57;17.40;99.90
61094;DHT22;46976;52.942;6.810;2023-10-09T15:00:24;17.40;99.90
61094;DHT22;46976;52.942;6.810;2023-10-09T15:02:50;17.40;99.90
61094;DHT22;46976;52.942;6.810;2023-10-09T15:05:18;17.40;99.90
61094;DHT22;46976;52.942;6.810;2023-10-09T15:07:44;17.40;99.90
61094;DHT22;46976;52.942;6.810;2023-10-09T15:10:11;17.40;99.90
61094;DHT22;46976;52.942;6.810;2023-10-09T15:12:41;17.40;99.90
61094;DHT22;46976;52.942;6.810;2023-10-09T15:15:09;17.30;99.90
61094;DHT22;46976;52.942;6.810;2023-10-09T15:17:40;17.30;99.90
61094;DHT22;46976;52.942;6.810;2023-10-09T15:20:14;17.30;99.90
61094;DHT22;46976;52.942;6.810;2023-10-09T15:22:45;17.30;99.90
61094;DHT22;46976;52.942;6.810;2023-10-09T15:25:11;17.20;99.90
61094;DHT22;46976;52.942;6.810;2023-10-09T15:27:43;17.10;99.90
61094;DHT22;46976;52.942;6.810;2023-10-09T15:30:09;17.10;99.90
61094;DHT22;46976;52.942;6.810;2023-10-09T15:32:40;17.10;99.90
61094;DHT22;46976;52.942;6.810;2023-10-09T15:35:08;17.10;99.90
61094;DHT22;46976;52.942;6.810;2023-10-09T15:37:36;17.20;99.90
61094;DHT22;46976;52.942;6.810;2023-10-09T15:40:01;17.10;99.90
61094;DHT22;46976;52.942;6.810;2023-10-09T15:42:40;17.10;99.90
61094;DHT22;46976;52.942;6.810;2023-10-09T15:45:06;17.10;99.90
61094;DHT22;46976;52.942;6.810;2023-10-09T15:47:32;17.00;99.90
61094;DHT22;46976;52.942;6.810;2023-10-09T15:50:05;17.00;99.90
61094;DHT22;46976;52.942;6.810;2023-10-09T15:52:34;17.00;99.90
61094;DHT22;46976;52.942;6.810;2023-10-09T15:55:00;17.00;99.90
61094;DHT22;46976;52.942;6.810;2023-10-09T15:57:26;17.00;99.90
61094;DHT22;46976;52.942;6.810;2023-10-09T15:59:52;16.90;99.90
61094;DHT22;46976;52.942;6.810;2023-10-09T16:02:18;16.90;99.90
61094;DHT22;46976;52.942;6.810;2023-10-09T16:04:44;16.90;99.90
61094;DHT22;46976;52.942;6.810;2023-10-09T16:07:11;16.90;99.90
61094;DHT22;46976;52.942;6.810;2023-10-09T16:09:37;16.90;99.90
61094;DHT22;46976;52.942;6.810;2023-10-09T16:12:06;16.90;99.90
61094;DHT22;46976;52.942;6.810;2023-10-09T16:14:33;16.80;99.90
61094;DHT22;46976;52.942;6.810;2023-10-09T16:17:01;16.80;99.90
61094;DHT22;46976;52.942;6.810;2023-10-09T16:19:27;16.80;99.90
61094;DHT22;46976;52.942;6.810;2023-10-09T16:21:58;16.70;99.90
61094;DHT22;46976;52.942;6.810;2023-10-09T16:24:30;16.70;99.90
61094;DHT22;46976;52.942;6.810;2023-10-09T16:27:00;16.60;99.90
61094;DHT22;46976;52.942;6.810;2023-10-09T16:29:25;16.60;99.90
61094;DHT22;46976;52.942;6.810;2023-10-09T16:31:53;16.60;99.90
61094;DHT22;46976;52.942;6.810;2023-10-09T16:34:21;16.60;99.90